createdAt,value
2022-11-19T00:00:18.464Z,3.13
2022-11-19T00:03:21.841Z,2.95
2022-11-19T00:06:25.493Z,2.78
2022-11-19T00:09:28.105Z,2.67
2022-11-19T00:12:50.038Z,3.13
2022-11-19T00:15:53.145Z,3.10
2022-11-19T00:18:56.113Z,3.47
2022-11-19T00:21:59.178Z,3.13
2022-11-19T00:25:02.040Z,2.70
2022-11-19T00:28:06.869Z,3.47
2022-11-19T00:31:10.428Z,2.08
2022-11-19T00:34:14.033Z,2.95
2022-11-19T00:37:16.673Z,2.45
2022-11-19T00:40:19.590Z,3.80
2022-11-19T00:43:41.581Z,2.93
2022-11-19T00:46:44.225Z,3.75
2022-11-19T00:49:46.839Z,2.83
2022-11-19T00:52:49.803Z,2.10
2022-11-19T00:55:52.841Z,2.75
2022-11-19T00:58:56.873Z,3.50
2022-11-19T01:01:59.382Z,3.38
2022-11-19T01:05:01.964Z,3.22
2022-11-19T01:08:04.781Z,3.10
2022-11-19T01:11:07.855Z,2.97
2022-11-19T01:14:11.743Z,2.92
2022-11-19T01:17:14.176Z,2.28
2022-11-19T01:20:17.670Z,1.83
2022-11-19T01:23:20.317Z,1.38
2022-11-19T01:26:22.813Z,1.95
2022-11-19T01:29:26.765Z,2.03
2022-11-19T01:32:29.266Z,2.72
2022-11-19T01:35:31.791Z,2.13
2022-11-19T01:38:34.543Z,2.17
2022-11-19T01:41:37.031Z,2.75
2022-11-19T01:45:06.584Z,1.77
2022-11-19T01:48:13.795Z,1.67
2022-11-19T01:51:18.065Z,1.90
2022-11-19T01:54:23.048Z,1.63
2022-11-19T01:57:25.569Z,1.70
2022-11-19T02:00:28.239Z,1.80
2022-11-19T02:03:35.844Z,1.55
2022-11-19T02:06:38.598Z,1.50
2022-11-19T02:09:41.723Z,1.55
2022-11-19T02:12:46.131Z,2.05
2022-11-19T02:15:51.831Z,1.47
2022-11-19T02:19:01.436Z,1.83
2022-11-19T02:22:14.402Z,1.45
2022-11-19T02:25:24.923Z,1.45
2022-11-19T02:28:31.186Z,1.48
2022-11-19T02:31:39.868Z,1.30
2022-11-19T02:34:44.806Z,1.30
2022-11-19T02:37:50.611Z,1.45
2022-11-19T02:40:56.030Z,1.47
2022-11-19T02:44:21.792Z,1.83
2022-11-19T02:47:28.879Z,1.23
2022-11-19T02:50:32.919Z,1.50
2022-11-19T02:53:35.826Z,1.07
2022-11-19T02:56:49.073Z,1.20
2022-11-19T03:00:12.479Z,1.30
2022-11-19T03:03:35.560Z,0.87
2022-11-19T03:06:38.562Z,0.67
2022-11-19T03:09:42.650Z,0.88
2022-11-19T03:12:49.306Z,1.47
2022-11-19T03:16:11.391Z,1.40
2022-11-19T03:19:20.580Z,1.00
2022-11-19T03:22:25.140Z,1.07
2022-11-19T03:25:29.823Z,1.30
2022-11-19T03:28:34.994Z,2.20
2022-11-19T03:31:38.428Z,1.37
2022-11-19T03:34:44.206Z,1.20
2022-11-19T03:37:49.709Z,1.40
2022-11-19T03:40:53.640Z,1.00
2022-11-19T03:43:58.161Z,1.50
2022-11-19T03:47:03.004Z,0.98
2022-11-19T03:50:11.247Z,1.17
2022-11-19T03:53:14.030Z,1.10
2022-11-19T03:56:19.497Z,1.00
2022-11-19T03:59:28.337Z,1.30
2022-11-19T04:02:32.300Z,1.20
2022-11-19T04:05:36.233Z,0.98
2022-11-19T04:08:38.699Z,1.27
2022-11-19T04:11:41.395Z,1.70
2022-11-19T04:14:43.869Z,0.67
2022-11-19T04:17:47.506Z,1.90
2022-11-19T04:20:51.408Z,1.13
2022-11-19T04:23:53.932Z,1.43
2022-11-19T04:26:56.451Z,1.02
2022-11-19T04:29:58.969Z,0.90
2022-11-19T04:33:01.482Z,1.05
2022-11-19T04:36:05.649Z,0.87
2022-11-19T04:39:08.639Z,1.03
2022-11-19T04:42:11.134Z,1.02
2022-11-19T04:45:13.666Z,1.03
2022-11-19T04:48:16.327Z,0.90
2022-11-19T04:51:20.354Z,1.33
2022-11-19T04:54:22.847Z,0.80
2022-11-19T04:57:25.388Z,1.13
2022-11-19T05:00:27.915Z,1.15
2022-11-19T05:03:30.450Z,1.00
2022-11-19T05:06:34.345Z,1.10
2022-11-19T05:09:37.877Z,1.10
2022-11-19T05:12:40.431Z,1.25
2022-11-19T05:15:42.874Z,0.80
2022-11-19T05:18:45.540Z,1.10
2022-11-19T05:21:49.371Z,0.93
2022-11-19T05:24:51.796Z,1.63
2022-11-19T05:27:54.420Z,1.73
2022-11-19T05:30:56.882Z,1.50
2022-11-19T05:33:59.444Z,1.47
2022-11-19T05:37:03.265Z,1.33
2022-11-19T05:40:06.349Z,1.37
2022-11-19T05:43:09.530Z,1.57
2022-11-19T05:46:12.057Z,1.03
2022-11-19T05:49:14.512Z,1.27
2022-11-19T05:52:18.496Z,1.40
2022-11-19T05:55:21.183Z,1.23
2022-11-19T05:58:23.728Z,1.10
2022-11-19T06:01:26.791Z,0.68
2022-11-19T06:04:29.322Z,1.10
2022-11-19T06:07:33.257Z,0.90
2022-11-19T06:10:35.811Z,1.00
2022-11-19T06:13:38.335Z,1.27
2022-11-19T06:16:40.862Z,1.27
2022-11-19T06:19:43.470Z,1.30
2022-11-19T06:22:47.355Z,1.70
2022-11-19T06:25:50.500Z,1.67
2022-11-19T06:28:53.216Z,1.50
2022-11-19T06:31:55.779Z,1.40
2022-11-19T06:34:58.322Z,1.35
2022-11-19T06:38:02.251Z,1.63
2022-11-19T06:41:04.820Z,1.55
2022-11-19T06:44:07.301Z,1.30
2022-11-19T06:47:10.160Z,1.17
2022-11-19T06:50:13.171Z,1.33
2022-11-19T06:53:17.104Z,1.30
2022-11-19T06:56:19.657Z,1.30
2022-11-19T06:59:22.468Z,2.37
2022-11-19T07:02:24.986Z,1.73
2022-11-19T07:05:27.629Z,1.60
2022-11-19T07:08:34.794Z,1.70
2022-11-19T07:11:37.299Z,0.95
2022-11-19T07:14:40.422Z,1.20
2022-11-19T07:17:43.226Z,1.30
2022-11-19T07:20:46.107Z,1.37
2022-11-19T07:23:49.995Z,2.17
2022-11-19T07:26:52.529Z,1.40
2022-11-19T07:29:55.010Z,1.40
2022-11-19T07:32:58.091Z,2.60
2022-11-19T07:36:00.574Z,2.50
2022-11-19T07:39:04.891Z,3.13
2022-11-19T07:42:25.147Z,2.63
2022-11-19T07:45:28.156Z,2.23
2022-11-19T07:48:30.750Z,2.03
2022-11-19T07:51:33.307Z,1.58
2022-11-19T07:54:37.158Z,1.55
2022-11-19T07:57:39.717Z,1.20
2022-11-19T08:00:42.648Z,1.47
2022-11-19T08:03:46.142Z,1.42
2022-11-19T08:06:48.644Z,1.53
2022-11-19T08:09:52.465Z,1.90
2022-11-19T08:13:03.862Z,2.20
2022-11-19T08:16:07.453Z,1.77
2022-11-19T08:19:10.243Z,1.67
2022-11-19T08:22:12.843Z,2.00
2022-11-19T08:25:16.760Z,1.88
2022-11-19T08:28:19.363Z,1.48
2022-11-19T08:31:21.886Z,1.88
2022-11-19T08:34:24.922Z,1.83
2022-11-19T08:37:27.442Z,1.83
2022-11-19T08:40:31.296Z,1.92
2022-11-19T08:43:33.016Z,1.92
2022-11-19T08:46:35.549Z,1.65
2022-11-19T08:49:38.430Z,1.65
2022-11-19T08:52:41.054Z,1.63
2022-11-19T08:55:44.895Z,1.90
2022-11-19T08:58:47.432Z,1.85
2022-11-19T09:01:50.194Z,2.10
2022-11-19T09:04:52.819Z,2.08
2022-11-19T09:07:55.322Z,2.05
2022-11-19T09:11:06.049Z,1.95
2022-11-19T09:14:08.514Z,1.90
2022-11-19T09:17:11.028Z,2.00
2022-11-19T09:20:13.805Z,2.25
2022-11-19T09:23:16.610Z,2.15
2022-11-19T09:26:20.393Z,2.00
2022-11-19T09:29:22.964Z,1.50
2022-11-19T09:32:25.814Z,1.83
2022-11-19T09:35:28.299Z,1.67
2022-11-19T09:38:31.441Z,1.30
2022-11-19T09:41:43.330Z,1.73
2022-11-19T09:44:54.082Z,1.38
2022-11-19T09:48:13.133Z,2.03
2022-11-19T09:51:17.057Z,1.48
2022-11-19T09:54:21.958Z,1.90
2022-11-19T09:57:29.160Z,1.83
2022-11-19T10:00:32.476Z,2.38
2022-11-19T10:03:35.034Z,2.55
2022-11-19T10:06:49.884Z,2.10
2022-11-19T10:09:57.148Z,1.60
2022-11-19T10:13:12.622Z,1.92
2022-11-19T10:16:33.422Z,1.48
2022-11-19T10:19:42.271Z,1.30
2022-11-19T10:22:54.251Z,1.23
2022-11-19T10:26:02.771Z,1.65
2022-11-19T10:29:13.934Z,1.17
2022-11-19T10:32:23.005Z,1.40
2022-11-19T10:35:28.408Z,1.63
2022-11-19T10:38:34.199Z,1.90
2022-11-19T10:41:38.751Z,1.60
2022-11-19T10:44:45.146Z,1.42
2022-11-19T10:47:50.249Z,1.17
2022-11-19T10:50:55.770Z,1.80
2022-11-19T10:53:58.835Z,1.80
2022-11-19T10:57:01.790Z,0.88
2022-11-19T11:03:43.371Z,1.50
2022-11-19T11:06:53.137Z,1.02
2022-11-19T11:09:55.834Z,1.30
2022-11-19T11:13:16.951Z,1.23
2022-11-19T11:16:22.076Z,1.17
2022-11-19T11:19:25.699Z,1.63
2022-11-19T11:22:28.871Z,1.17
2022-11-19T11:25:31.596Z,1.38
2022-11-19T11:28:34.648Z,1.20
2022-11-19T11:31:40.626Z,1.45
2022-11-19T11:34:44.244Z,1.17
2022-11-19T11:37:47.217Z,1.25
2022-11-19T11:41:11.777Z,1.58
2022-11-19T11:44:19.758Z,1.13
2022-11-19T11:47:29.209Z,1.52
2022-11-19T11:50:32.026Z,1.60
2022-11-19T11:53:39.871Z,1.67
2022-11-19T11:56:42.910Z,1.33
2022-11-19T11:59:46.082Z,1.08
2022-11-19T12:03:00.406Z,1.50
2022-11-19T12:06:07.628Z,1.45
2022-11-19T12:09:15.760Z,1.50
2022-11-19T12:12:22.686Z,1.15
2022-11-19T12:15:29.930Z,1.63
2022-11-19T12:18:38.151Z,1.10
2022-11-19T12:21:44.319Z,1.15
2022-11-19T12:24:56.963Z,2.45
2022-11-19T12:28:08.026Z,1.80
2022-11-19T12:31:16.874Z,1.30
2022-11-19T12:34:31.606Z,1.88
2022-11-19T12:37:50.169Z,1.17
2022-11-19T12:40:56.730Z,1.50
2022-11-19T12:44:00.203Z,1.88
2022-11-19T12:47:08.568Z,2.10
2022-11-19T12:50:15.168Z,2.13
2022-11-19T12:53:28.720Z,1.85
2022-11-19T12:56:41.405Z,1.92
2022-11-19T12:59:51.717Z,2.15
2022-11-19T13:02:59.934Z,1.35
2022-11-19T13:06:06.159Z,1.88
2022-11-19T13:09:17.695Z,1.75
2022-11-19T13:12:34.136Z,1.70
2022-11-19T13:15:39.005Z,2.35
2022-11-19T13:18:45.350Z,2.38
2022-11-19T13:21:54.700Z,1.70
2022-11-19T13:25:00.021Z,1.85
2022-11-19T13:28:04.477Z,1.95
2022-11-19T13:31:08.842Z,1.63
2022-11-19T13:34:18.976Z,1.48
2022-11-19T13:37:28.583Z,1.17
2022-11-19T13:40:33.669Z,1.25
2022-11-19T13:43:50.355Z,1.30
2022-11-19T13:46:55.784Z,1.30
2022-11-19T13:50:01.738Z,1.05
2022-11-19T13:53:07.124Z,1.58
2022-11-19T13:56:13.840Z,1.13
2022-11-19T13:59:24.842Z,1.00
2022-11-19T14:02:39.856Z,1.40
2022-11-19T14:05:51.247Z,1.10
2022-11-19T14:09:03.757Z,0.95
2022-11-19T14:12:19.324Z,0.93
2022-11-19T14:15:43.674Z,1.30
2022-11-19T14:19:05.803Z,1.13
2022-11-19T14:22:44.593Z,1.15
2022-11-19T14:26:07.586Z,1.08
2022-11-19T14:29:33.729Z,0.93
2022-11-19T14:32:46.978Z,0.95
2022-11-19T14:35:50.866Z,1.00
2022-11-19T14:38:55.021Z,1.00
2022-11-19T14:42:16.094Z,0.90
2022-11-19T14:45:20.365Z,1.15
2022-11-19T14:48:25.981Z,1.30
2022-11-19T14:51:32.524Z,1.85
2022-11-19T14:54:39.137Z,1.70
2022-11-19T14:58:00.168Z,0.80
2022-11-19T15:01:14.469Z,1.10
2022-11-19T15:04:22.218Z,1.17
2022-11-19T15:07:39.296Z,0.90
2022-11-19T15:15:06.533Z,0.95
2022-11-19T15:18:34.515Z,1.02
2022-11-19T15:22:04.390Z,0.80
2022-11-19T15:25:17.969Z,1.08
2022-11-19T15:28:30.992Z,1.08
2022-11-19T15:31:57.607Z,1.00
2022-11-19T15:35:18.990Z,0.70
2022-11-19T15:38:29.368Z,0.80
2022-11-19T15:41:33.535Z,0.82
2022-11-19T15:44:40.580Z,0.85
2022-11-19T15:47:45.507Z,1.05
2022-11-19T15:50:48.906Z,1.13
2022-11-19T15:54:01.477Z,1.00
2022-11-19T15:57:05.751Z,0.80
2022-11-19T16:00:16.595Z,0.95
2022-11-19T16:03:20.728Z,1.48
2022-11-19T16:06:24.468Z,1.20
2022-11-19T16:09:29.698Z,1.50
2022-11-19T16:12:51.275Z,0.95
2022-11-19T16:16:13.654Z,1.10
2022-11-19T16:19:19.052Z,1.30
2022-11-19T16:22:54.910Z,0.98
2022-11-19T16:26:09.574Z,1.23
2022-11-19T16:29:17.754Z,1.02
2022-11-19T16:32:22.082Z,0.88
2022-11-19T16:35:37.811Z,1.05
2022-11-19T16:38:42.973Z,1.20
2022-11-19T16:42:05.536Z,1.42
2022-11-19T16:45:14.440Z,1.27
2022-11-19T16:48:50.711Z,1.05
2022-11-19T16:52:02.892Z,0.95
2022-11-19T16:55:22.076Z,0.98
2022-11-19T16:58:26.178Z,1.00
2022-11-19T17:01:29.857Z,0.88
2022-11-19T17:04:32.642Z,1.00
2022-11-19T17:07:37.325Z,0.88
2022-11-19T17:10:40.958Z,0.82
2022-11-19T17:13:43.800Z,1.17
2022-11-19T17:16:47.157Z,1.20
2022-11-19T17:19:52.027Z,1.25
2022-11-19T17:23:05.890Z,1.00
2022-11-19T17:26:20.434Z,1.23
2022-11-19T17:29:24.290Z,0.80
2022-11-19T17:32:26.893Z,1.48
2022-11-19T17:35:43.871Z,1.23
2022-11-19T17:38:49.533Z,1.20
2022-11-19T17:42:14.829Z,1.23
2022-11-19T17:45:18.337Z,1.30
2022-11-19T17:48:22.244Z,1.58
2022-11-19T17:51:26.556Z,1.55
2022-11-19T17:54:31.832Z,1.90
2022-11-19T17:57:41.177Z,1.85
2022-11-19T18:00:45.095Z,1.65
2022-11-19T18:03:55.987Z,1.75
2022-11-19T18:07:55.073Z,1.63
2022-11-19T18:11:05.800Z,1.42
2022-11-19T18:14:10.716Z,1.65
2022-11-19T18:17:16.673Z,1.58
2022-11-19T18:20:19.382Z,2.15
2022-11-19T18:23:21.983Z,1.92
2022-11-19T18:26:25.903Z,1.67
2022-11-19T18:29:30.781Z,2.17
2022-11-19T18:32:36.896Z,1.60
2022-11-19T18:35:40.114Z,2.05
2022-11-19T18:38:42.722Z,2.30
2022-11-19T18:41:54.605Z,2.17
2022-11-19T18:44:57.822Z,2.00
2022-11-19T18:48:02.037Z,2.38
2022-11-19T18:51:04.780Z,2.05
2022-11-19T18:54:39.617Z,1.65
2022-11-19T18:57:43.643Z,1.90
2022-11-19T19:00:51.689Z,2.60
2022-11-19T19:03:55.510Z,1.80
2022-11-19T19:06:59.630Z,1.88
2022-11-19T19:10:06.582Z,1.65
2022-11-19T19:13:11.141Z,1.55
2022-11-19T19:16:14.605Z,1.95
2022-11-19T19:19:20.909Z,2.08
2022-11-19T19:22:23.652Z,2.05
2022-11-19T19:25:38.820Z,1.98
2022-11-19T19:28:57.428Z,2.00
2022-11-19T19:32:00.154Z,1.98
2022-11-19T19:35:06.037Z,2.08
2022-11-19T19:38:19.094Z,2.58
2022-11-19T19:41:22.789Z,1.75
2022-11-19T19:44:26.618Z,1.83
2022-11-19T19:47:34.558Z,2.53
2022-11-19T19:50:54.196Z,1.88
2022-11-19T19:54:04.282Z,1.75
2022-11-19T19:57:10.565Z,1.70
2022-11-19T20:00:18.507Z,1.95
2022-11-19T20:03:26.619Z,1.63
2022-11-19T20:06:29.902Z,1.80
2022-11-19T20:09:34.676Z,1.48
2022-11-19T20:12:54.948Z,1.60
2022-11-19T20:16:04.265Z,1.60
2022-11-19T20:19:37.028Z,1.77
2022-11-19T20:22:43.216Z,1.70
2022-11-19T20:25:48.595Z,1.27
2022-11-19T20:28:55.007Z,1.70
2022-11-19T20:31:59.026Z,1.58
2022-11-19T20:35:07.883Z,1.48
2022-11-19T20:38:10.557Z,1.25
2022-11-19T20:41:27.771Z,1.35
2022-11-19T20:44:30.756Z,1.75
2022-11-19T20:47:35.096Z,1.50
2022-11-19T20:50:37.726Z,1.73
2022-11-19T20:57:25.517Z,1.95
2022-11-19T21:00:28.254Z,1.90
2022-11-19T21:03:36.149Z,1.52
2022-11-19T21:06:48.993Z,1.50
2022-11-19T21:09:51.685Z,1.95
2022-11-19T21:13:08.313Z,2.28
2022-11-19T21:16:12.821Z,1.60
2022-11-19T21:19:28.997Z,2.05
2022-11-19T21:22:31.979Z,2.30
2022-11-19T21:25:41.519Z,1.83
2022-11-19T21:28:45.153Z,1.92
2022-11-19T21:31:49.089Z,2.20
2022-11-19T21:34:55.266Z,2.47
2022-11-19T21:38:01.881Z,2.08
2022-11-19T21:41:06.787Z,2.25
2022-11-19T21:44:09.458Z,2.40
2022-11-19T21:47:12.814Z,2.13
2022-11-19T21:50:18.305Z,2.05
2022-11-19T21:53:22.381Z,2.15
2022-11-19T21:56:26.769Z,2.35
2022-11-19T21:59:49.578Z,1.88
2022-11-19T22:02:53.639Z,2.60
2022-11-19T22:06:02.563Z,1.83
2022-11-19T22:09:06.367Z,2.28
2022-11-19T22:12:09.810Z,2.13
2022-11-19T22:15:14.678Z,1.77
2022-11-19T22:18:25.733Z,1.90
2022-11-19T22:21:29.914Z,2.08
2022-11-19T22:24:32.633Z,2.03
2022-11-19T22:27:35.233Z,1.77
2022-11-19T22:30:37.940Z,1.92
2022-11-19T22:33:41.958Z,2.13
2022-11-19T22:36:50.872Z,1.90
2022-11-19T22:39:56.148Z,2.20
2022-11-19T22:43:00.971Z,1.60
2022-11-19T22:46:06.057Z,2.30
2022-11-19T22:49:08.729Z,1.95
2022-11-19T22:52:17.611Z,1.63
2022-11-19T22:55:20.837Z,1.85
2022-11-19T23:02:28.135Z,1.92
2022-11-19T23:05:41.150Z,1.92
2022-11-19T23:08:47.638Z,1.92
2022-11-19T23:12:09.007Z,1.95
2022-11-19T23:15:11.622Z,1.60
2022-11-19T23:18:15.902Z,2.05
2022-11-19T23:21:19.969Z,2.25
2022-11-19T23:24:29.842Z,2.33
2022-11-19T23:27:36.228Z,1.75
2022-11-19T23:30:48.117Z,2.22
2022-11-19T23:33:57.436Z,2.00
2022-11-19T23:37:01.529Z,2.20
2022-11-19T23:40:09.972Z,1.70
2022-11-19T23:43:12.790Z,2.47
2022-11-19T23:46:16.994Z,2.00
2022-11-19T23:49:19.691Z,1.45
2022-11-19T23:52:22.923Z,2.08
2022-11-19T23:55:26.728Z,1.80
2022-11-19T23:58:29.365Z,2.22
